createdAt,value
2019-05-12T00:01:48.118Z,100050.47
2019-05-12T00:04:19.165Z,100056.03
2019-05-12T00:06:49.886Z,100052.12
2019-05-12T00:09:20.581Z,100058.02
2019-05-12T00:11:51.355Z,100058.15
2019-05-12T00:14:23.735Z,100059.61
2019-05-12T00:16:54.550Z,100065.09
2019-05-12T00:19:28.347Z,100064.35
2019-05-12T00:21:58.856Z,100070.91
2019-05-12T00:24:29.578Z,100070.07
2019-05-12T00:27:02.777Z,100064.63
2019-05-12T00:29:33.455Z,100064.95
2019-05-12T00:32:04.455Z,100072.61
2019-05-12T00:34:35.135Z,100070.86
2019-05-12T00:37:08.170Z,100070.97
2019-05-12T00:39:38.334Z,100065.40
2019-05-12T00:42:09.177Z,100068.62
2019-05-12T00:44:40.465Z,100066.66
2019-05-12T00:47:11.237Z,100067.04
2019-05-12T00:49:42.156Z,100065.20
2019-05-12T00:52:12.875Z,100063.27
2019-05-12T00:54:43.586Z,100066.77
2019-05-12T00:57:14.345Z,100064.75
2019-05-12T00:59:47.643Z,100067.48
2019-05-12T01:02:18.283Z,100067.91
2019-05-12T01:04:49.145Z,100068.30
2019-05-12T01:07:21.205Z,100068.63
2019-05-12T01:09:52.015Z,100067.70
2019-05-12T01:12:22.877Z,100070.97
2019-05-12T01:14:54.356Z,100070.73
2019-05-12T01:17:25.135Z,100070.52
2019-05-12T01:19:58.330Z,100079.93
2019-05-12T01:22:28.482Z,100080.70
2019-05-12T01:24:59.875Z,100084.90
2019-05-12T01:27:30.645Z,100085.16
2019-05-12T01:30:01.596Z,100084.95
2019-05-12T01:32:38.239Z,100079.52
2019-05-12T01:35:09.555Z,100078.41
2019-05-12T01:37:40.325Z,100082.67
2019-05-12T01:40:11.405Z,100078.99
2019-05-12T01:42:42.137Z,100079.70
2019-05-12T01:45:13.986Z,100083.03
2019-05-12T01:47:44.878Z,100083.89
2019-05-12T01:50:17.771Z,100088.72
2019-05-12T01:52:48.755Z,100093.86
2019-05-12T01:55:19.478Z,100093.98
2019-05-12T01:57:50.239Z,100094.37
2019-05-12T02:00:21.129Z,100098.08
2019-05-12T02:02:52.231Z,100095.90
2019-05-12T02:05:24.035Z,100092.35
2019-05-12T02:07:58.083Z,100091.36
2019-05-12T02:10:28.905Z,100091.36
2019-05-12T02:12:59.885Z,100083.11
2019-05-12T02:15:30.715Z,100085.28
2019-05-12T02:18:01.395Z,100083.11
2019-05-12T02:20:32.285Z,100083.17
2019-05-12T02:23:02.995Z,100080.05
2019-05-12T02:25:33.755Z,100093.54
2019-05-12T02:28:04.616Z,100090.92
2019-05-12T02:30:35.256Z,100096.16
2019-05-12T02:33:06.210Z,100096.28
2019-05-12T02:35:36.917Z,100094.87
2019-05-12T02:38:07.636Z,100104.38
2019-05-12T02:40:38.544Z,100098.06
2019-05-12T02:43:09.312Z,100094.13
2019-05-12T02:45:39.995Z,100093.09
2019-05-12T02:48:14.176Z,100091.59
2019-05-12T02:50:45.208Z,100095.76
2019-05-12T02:53:15.638Z,100097.87
2019-05-12T02:55:47.937Z,100094.59
2019-05-12T02:58:19.958Z,100097.41
2019-05-12T03:00:54.616Z,100093.14
2019-05-12T03:03:25.279Z,100091.55
2019-05-12T03:05:56.181Z,100093.50
2019-05-12T03:08:27.239Z,100100.70
2019-05-12T03:10:58.896Z,100125.44
2019-05-12T03:13:29.744Z,100118.66
2019-05-12T03:16:00.643Z,100112.25
2019-05-12T03:18:34.516Z,100120.62
2019-05-12T03:21:05.562Z,100121.17
2019-05-12T03:23:36.599Z,100121.56
2019-05-12T03:26:07.520Z,100131.13
2019-05-12T03:28:38.384Z,100129.37
2019-05-12T03:31:09.209Z,100142.00
2019-05-12T03:33:43.135Z,100141.62
2019-05-12T03:36:17.177Z,100139.92
2019-05-12T03:38:45.087Z,100143.21
2019-05-12T03:41:16.236Z,100153.31
2019-05-12T03:43:47.045Z,100149.44
2019-05-12T03:46:17.816Z,100151.80
2019-05-12T03:48:48.955Z,100152.34
2019-05-12T03:51:19.717Z,100157.23
2019-05-12T03:53:50.417Z,100161.64
2019-05-12T03:56:25.519Z,100162.42
2019-05-12T03:58:54.626Z,100163.99
2019-05-12T04:01:25.921Z,100166.62
2019-05-12T04:03:56.635Z,100173.56
2019-05-12T04:06:27.457Z,100167.09
2019-05-12T04:09:00.001Z,100167.42
2019-05-12T04:11:30.857Z,100174.56
2019-05-12T04:14:01.595Z,100174.67
2019-05-12T04:16:35.841Z,100179.91
2019-05-12T04:19:05.559Z,100175.94
2019-05-12T04:21:36.427Z,100167.95
2019-05-12T04:24:07.157Z,100183.63
2019-05-12T04:26:38.196Z,100183.34
2019-05-12T04:29:09.036Z,100190.75
2019-05-12T04:31:39.890Z,100188.53
2019-05-12T04:34:14.689Z,100189.80
2019-05-12T04:36:44.937Z,100197.20
2019-05-12T04:39:15.625Z,100196.92
2019-05-12T04:41:46.378Z,100198.83
2019-05-12T04:44:17.116Z,100208.05
2019-05-12T04:46:48.977Z,100209.09
2019-05-12T04:49:20.076Z,100211.02
2019-05-12T04:51:50.915Z,100215.88
2019-05-12T04:54:24.411Z,100223.17
2019-05-12T04:56:55.113Z,100225.20
2019-05-12T04:59:26.016Z,100227.72
2019-05-12T05:01:56.938Z,100230.59
2019-05-12T05:04:27.775Z,100234.01
2019-05-12T05:06:58.776Z,100237.77
2019-05-12T05:09:30.079Z,100244.84
2019-05-12T05:12:04.429Z,100243.27
2019-05-12T05:14:34.375Z,100248.20
2019-05-12T05:17:05.923Z,100249.59
2019-05-12T05:19:37.224Z,100246.61
2019-05-12T05:22:08.055Z,100254.20
2019-05-12T05:24:39.037Z,100258.20
2019-05-12T05:27:09.915Z,100261.20
2019-05-12T05:29:40.915Z,100253.73
2019-05-12T05:32:13.944Z,100265.53
2019-05-12T05:34:45.984Z,100271.24
2019-05-12T05:37:17.060Z,100273.16
2019-05-12T05:39:49.641Z,100281.47
2019-05-12T05:42:22.116Z,100280.78
2019-05-12T05:44:54.795Z,100279.62
2019-05-12T05:47:28.662Z,100285.27
2019-05-12T05:49:57.935Z,100289.44
2019-05-12T05:52:33.421Z,100294.89
2019-05-12T05:55:05.795Z,100292.25
2019-05-12T05:57:33.744Z,100294.27
2019-05-12T06:00:07.252Z,100296.95
2019-05-12T06:02:40.503Z,100288.19
2019-05-12T06:05:14.253Z,100289.81
2019-05-12T06:07:44.401Z,100294.36
2019-05-12T06:10:15.275Z,100297.22
2019-05-12T06:12:50.632Z,100299.11
2019-05-12T06:15:18.635Z,100299.10
2019-05-12T06:17:49.555Z,100295.21
2019-05-12T06:20:20.493Z,100290.77
2019-05-12T06:22:54.626Z,100290.00
2019-05-12T06:25:26.539Z,100294.02
2019-05-12T06:27:59.973Z,100301.65
2019-05-12T06:30:30.356Z,100298.50
2019-05-12T06:33:01.155Z,100298.75
2019-05-12T06:35:37.546Z,100298.67
2019-05-12T06:38:05.226Z,100293.47
2019-05-12T06:40:40.814Z,100296.20
2019-05-12T06:43:09.096Z,100299.05
2019-05-12T06:45:43.310Z,100294.31
2019-05-12T06:48:14.066Z,100284.74
2019-05-12T06:50:45.105Z,100299.46
2019-05-12T06:53:20.235Z,100297.08
2019-05-12T06:55:48.335Z,100303.48
2019-05-12T06:58:26.280Z,100302.48
2019-05-12T07:00:53.966Z,100306.72
2019-05-12T07:03:26.146Z,100305.85
2019-05-12T07:05:57.355Z,100305.02
2019-05-12T07:08:32.918Z,100306.79
2019-05-12T07:11:05.758Z,100308.68
2019-05-12T07:13:34.256Z,100310.28
2019-05-12T07:16:22.874Z,100308.83
2019-05-12T07:18:49.375Z,100304.49
2019-05-12T07:21:23.732Z,100315.13
2019-05-12T07:23:53.465Z,100309.09
2019-05-12T07:26:24.460Z,100308.24
2019-05-12T07:28:55.218Z,100309.92
2019-05-12T07:31:26.015Z,100310.05
2019-05-12T07:33:56.936Z,100311.14
2019-05-12T07:36:33.362Z,100303.14
2019-05-12T07:39:08.388Z,100314.63
2019-05-12T07:41:42.304Z,100310.72
2019-05-12T07:44:14.324Z,100314.23
2019-05-12T07:46:49.329Z,100312.61
2019-05-12T07:49:22.651Z,100310.63
2019-05-12T07:51:50.586Z,100312.77
2019-05-12T07:54:23.451Z,100318.57
2019-05-12T07:56:54.091Z,100317.23
2019-05-12T07:59:26.683Z,100319.43
2019-05-12T08:01:57.325Z,100316.08
2019-05-12T08:04:31.813Z,100328.63
2019-05-12T08:07:03.746Z,100316.77
2019-05-12T08:09:36.336Z,100321.48
2019-05-12T08:12:09.524Z,100321.83
2019-05-12T08:14:39.095Z,100322.25
2019-05-12T08:17:14.215Z,100321.30
2019-05-12T08:19:44.334Z,100316.53
2019-05-12T08:22:18.919Z,100314.30
2019-05-12T08:24:49.425Z,100313.41
2019-05-12T08:27:20.197Z,100316.52
2019-05-12T08:30:00.259Z,100315.92
2019-05-12T08:32:26.911Z,100320.39
2019-05-12T08:34:56.383Z,100320.64
2019-05-12T08:37:27.218Z,100318.02
2019-05-12T08:40:03.471Z,100318.02
2019-05-12T08:42:30.534Z,100318.72
2019-05-12T08:45:03.889Z,100312.53
2019-05-12T08:47:35.582Z,100313.31
2019-05-12T08:50:06.420Z,100324.05
2019-05-12T08:52:41.265Z,100325.48
2019-05-12T08:55:09.795Z,100317.05
2019-05-12T08:57:42.193Z,100320.73
2019-05-12T09:00:13.576Z,100324.36
2019-05-12T09:02:46.098Z,100326.94
2019-05-12T09:05:16.815Z,100316.44
2019-05-12T09:07:48.399Z,100319.84
2019-05-12T09:10:20.935Z,100330.62
2019-05-12T09:12:54.078Z,100329.75
2019-05-12T09:15:24.796Z,100333.27
2019-05-12T09:17:59.425Z,100334.71
2019-05-12T09:20:39.406Z,100334.63
2019-05-12T09:23:07.305Z,100333.28
2019-05-12T09:25:39.430Z,100334.22
2019-05-12T09:28:13.812Z,100334.06
2019-05-12T09:30:45.829Z,100333.82
2019-05-12T09:33:21.313Z,100337.45
2019-05-12T09:35:49.625Z,100342.77
2019-05-12T09:38:23.230Z,100337.59
2019-05-12T09:41:00.738Z,100337.49
2019-05-12T09:43:28.595Z,100343.09
2019-05-12T09:45:59.475Z,100350.48
2019-05-12T09:48:30.726Z,100339.55
2019-05-12T09:51:04.278Z,100340.58
2019-05-12T09:53:34.268Z,100341.78
2019-05-12T09:56:14.830Z,100345.99
2019-05-12T09:58:58.179Z,100350.53
2019-05-12T10:01:20.595Z,100347.64
2019-05-12T10:03:51.497Z,100350.98
2019-05-12T10:06:24.429Z,100350.59
2019-05-12T10:08:55.088Z,100349.09
2019-05-12T10:11:27.096Z,100347.12
2019-05-12T10:14:00.174Z,100349.16
2019-05-12T10:16:33.282Z,100347.67
2019-05-12T10:19:04.131Z,100349.67
2019-05-12T10:21:36.035Z,100355.05
2019-05-12T10:24:07.265Z,100351.67
2019-05-12T10:26:41.129Z,100347.14
2019-05-12T10:29:17.544Z,100356.05
2019-05-12T10:31:44.624Z,100350.66
2019-05-12T10:34:23.884Z,100342.45
2019-05-12T10:36:54.325Z,100344.77
2019-05-12T10:39:25.155Z,100346.25
2019-05-12T10:41:55.976Z,100346.57
2019-05-12T10:44:30.098Z,100343.42
2019-05-12T10:47:00.876Z,100344.16
2019-05-12T10:49:33.805Z,100350.91
2019-05-12T10:52:04.830Z,100346.94
2019-05-12T10:54:38.190Z,100340.60
2019-05-12T10:57:10.125Z,100352.39
2019-05-12T10:59:45.286Z,100353.18
2019-05-12T11:02:20.268Z,100349.99
2019-05-12T11:04:48.703Z,100348.65
2019-05-12T11:07:23.033Z,100351.12
2019-05-12T11:09:54.336Z,100346.00
2019-05-12T11:12:29.157Z,100360.52
2019-05-12T11:15:01.379Z,100359.20
2019-05-12T11:17:50.179Z,100351.38
2019-05-12T11:20:21.095Z,100351.28
2019-05-12T11:22:54.237Z,100357.70
2019-05-12T11:25:25.829Z,100354.95
2019-05-12T11:27:56.705Z,100354.30
2019-05-12T11:30:27.515Z,100360.88
2019-05-12T11:32:59.779Z,100351.95
2019-05-12T11:35:30.813Z,100355.28
2019-05-12T11:38:04.162Z,100355.02
2019-05-12T11:40:35.077Z,100351.03
2019-05-12T11:43:05.935Z,100357.09
2019-05-12T11:45:36.839Z,100359.73
2019-05-12T11:48:10.119Z,100362.98
2019-05-12T11:50:47.779Z,100363.75
2019-05-12T11:53:14.857Z,100366.53
2019-05-12T11:55:46.206Z,100362.78
2019-05-12T11:58:17.155Z,100368.25
2019-05-12T12:00:50.396Z,100361.95
2019-05-12T12:03:23.282Z,100356.41
2019-05-12T12:05:53.939Z,100358.75
2019-05-12T12:08:26.226Z,100358.16
2019-05-12T12:10:57.445Z,100355.64
2019-05-12T12:13:30.081Z,100353.20
2019-05-12T12:16:06.046Z,100350.42
2019-05-12T12:18:33.860Z,100350.31
2019-05-12T12:21:07.606Z,100357.11
2019-05-12T12:23:40.854Z,100355.98
2019-05-12T12:26:13.347Z,100362.65
2019-05-12T12:28:44.176Z,100358.97
2019-05-12T12:31:14.975Z,100364.33
2019-05-12T12:33:47.134Z,100360.27
2019-05-12T12:36:20.824Z,100369.22
2019-05-12T12:38:50.675Z,100368.47
2019-05-12T12:41:23.581Z,100369.99
2019-05-12T12:43:54.157Z,100363.14
2019-05-12T12:46:27.865Z,100372.09
2019-05-12T12:49:00.206Z,100371.36
2019-05-12T12:51:31.325Z,100371.06
2019-05-12T12:54:03.324Z,100372.86
2019-05-12T12:56:34.337Z,100380.88
2019-05-12T12:59:10.376Z,100371.91
2019-05-12T13:01:37.656Z,100375.80
2019-05-12T13:04:08.598Z,100377.81
2019-05-12T13:06:39.685Z,100384.52
2019-05-12T13:09:21.991Z,100378.52
2019-05-12T13:11:44.498Z,100377.52
2019-05-12T13:14:15.485Z,100380.20
2019-05-12T13:16:49.566Z,100379.61
2019-05-12T13:19:18.615Z,100393.56
2019-05-12T13:21:49.555Z,100394.59
2019-05-12T13:24:20.367Z,100395.70
2019-05-12T13:26:51.315Z,100394.78
2019-05-12T13:29:26.388Z,100400.54
2019-05-12T13:31:54.555Z,100401.42
2019-05-12T13:34:28.785Z,100398.23
2019-05-12T13:36:57.725Z,100400.66
2019-05-12T13:39:28.585Z,100407.17
2019-05-12T13:42:00.316Z,100413.98
2019-05-12T13:44:38.774Z,100420.05
2019-05-12T13:47:03.628Z,100423.28
2019-05-12T13:49:38.405Z,100431.30
2019-05-12T13:52:07.165Z,100421.33
2019-05-12T13:54:38.015Z,100422.20
2019-05-12T13:57:11.921Z,100416.92
2019-05-12T13:59:43.349Z,100427.36
2019-05-12T14:02:21.858Z,100426.62
2019-05-12T14:04:46.796Z,100429.56
2019-05-12T14:07:20.142Z,100426.67
2019-05-12T14:09:49.985Z,100427.90
2019-05-12T14:12:20.735Z,100429.59
2019-05-12T14:14:51.567Z,100429.75
2019-05-12T14:17:23.516Z,100428.49
2019-05-12T14:19:54.295Z,100434.22
2019-05-12T14:22:28.405Z,100438.09
2019-05-12T14:25:02.160Z,100441.70
2019-05-12T14:27:33.174Z,100437.57
2019-05-12T14:30:09.925Z,100439.89
2019-05-12T14:32:37.361Z,100451.05
2019-05-12T14:35:08.725Z,100450.34
2019-05-12T14:37:40.440Z,100448.89
2019-05-12T14:40:13.497Z,100453.83
2019-05-12T14:42:44.496Z,100461.65
2019-05-12T14:45:19.526Z,100470.48
2019-05-12T14:47:47.940Z,100477.89
2019-05-12T14:50:18.777Z,100480.77
2019-05-12T14:52:55.228Z,100487.35
2019-05-12T14:55:24.147Z,100487.58
2019-05-12T14:57:54.991Z,100494.75
2019-05-12T15:00:25.825Z,100498.16
2019-05-12T15:02:59.105Z,100505.55
2019-05-12T15:05:29.175Z,100517.05
2019-05-12T15:08:00.575Z,100522.14
2019-05-12T15:10:33.655Z,100524.84
2019-05-12T15:13:05.335Z,100530.08
2019-05-12T15:15:37.885Z,100537.36
2019-05-12T15:18:11.261Z,100546.59
2019-05-12T15:20:48.952Z,100550.80
2019-05-12T15:23:14.511Z,100561.34
2019-05-12T15:25:45.375Z,100565.03
2019-05-12T15:28:16.445Z,100563.14
2019-05-12T15:30:47.285Z,100564.00
2019-05-12T15:33:19.695Z,100567.11
2019-05-12T15:35:50.556Z,100572.71
2019-05-12T15:38:23.824Z,100568.51
2019-05-12T15:40:54.032Z,100576.06
2019-05-12T15:43:25.083Z,100586.86
2019-05-12T15:45:59.407Z,100590.77
2019-05-12T15:48:28.225Z,100601.37
2019-05-12T15:51:06.951Z,100601.44
2019-05-12T15:53:33.469Z,100598.83
2019-05-12T15:56:17.606Z,100600.16
2019-05-12T15:58:55.850Z,100603.88
2019-05-12T16:01:26.686Z,100606.55
2019-05-12T16:04:03.979Z,100614.27
2019-05-12T16:06:44.773Z,100621.68
2019-05-12T16:09:16.046Z,100614.70
2019-05-12T16:11:59.005Z,100605.63
2019-05-12T16:14:41.351Z,100606.00
2019-05-12T16:17:25.080Z,100598.14
2019-05-12T16:19:55.920Z,100598.06
2019-05-12T16:22:38.827Z,100601.86
2019-05-12T16:25:08.165Z,100601.47
2019-05-12T16:27:39.335Z,100606.64
2019-05-12T16:30:10.675Z,100604.28
2019-05-12T16:32:46.511Z,100609.28
2019-05-12T16:35:14.918Z,100615.70
2019-05-12T16:37:47.122Z,100612.59
2019-05-12T16:40:18.065Z,100616.64
2019-05-12T16:42:53.548Z,100614.33
2019-05-12T16:45:23.495Z,100614.99
2019-05-12T16:47:54.155Z,100624.75
2019-05-12T16:50:27.955Z,100624.47
2019-05-12T16:52:57.575Z,100620.78
2019-05-12T16:55:28.355Z,100617.09
2019-05-12T16:57:59.118Z,100624.09
2019-05-12T17:00:31.062Z,100619.45
2019-05-12T17:03:03.770Z,100617.34
2019-05-12T17:05:34.863Z,100626.40
2019-05-12T17:08:05.676Z,100629.12
2019-05-12T17:10:36.519Z,100630.73
2019-05-12T17:13:13.143Z,100639.12
2019-05-12T17:15:39.799Z,100643.91
2019-05-12T17:18:10.545Z,100639.47
2019-05-12T17:20:47.124Z,100643.38
2019-05-12T17:23:14.061Z,100643.25
2019-05-12T17:25:45.023Z,100641.83
2019-05-12T17:28:15.815Z,100643.23
2019-05-12T17:30:47.145Z,100660.12
2019-05-12T17:33:22.842Z,100675.27
2019-05-12T17:35:53.311Z,100680.02
2019-05-12T17:38:25.334Z,100684.45
2019-05-12T17:41:00.879Z,100699.07
2019-05-12T17:43:33.969Z,100718.21
2019-05-12T17:46:05.395Z,100720.97
2019-05-12T17:48:37.330Z,100738.22
2019-05-12T17:51:09.718Z,100752.50
2019-05-12T17:53:43.360Z,100756.31
2019-05-12T17:56:18.885Z,100764.66
2019-05-12T17:58:55.795Z,100768.83
2019-05-12T18:01:31.159Z,100773.41
2019-05-12T18:04:00.535Z,100786.88
2019-05-12T18:06:34.112Z,100787.77
2019-05-12T18:09:09.166Z,100793.59
2019-05-12T18:11:41.020Z,100805.02
2019-05-12T18:14:14.344Z,100799.76
2019-05-12T18:16:45.515Z,100809.75
2019-05-12T18:19:19.519Z,100814.80
2019-05-12T18:21:48.715Z,100823.48
2019-05-12T18:24:19.557Z,100829.84
2019-05-12T18:26:56.577Z,100829.83
2019-05-12T18:29:23.680Z,100834.99
2019-05-12T18:31:55.613Z,100840.96
2019-05-12T18:34:26.515Z,100845.95
2019-05-12T18:36:59.778Z,100847.05
2019-05-12T18:39:29.846Z,100849.44
2019-05-12T18:42:03.377Z,100855.78
2019-05-12T18:44:34.116Z,100850.98
2019-05-12T18:47:04.955Z,100860.86
2019-05-12T18:49:35.695Z,100859.49
2019-05-12T18:52:06.564Z,100860.00
2019-05-12T18:54:43.054Z,100855.09
2019-05-12T18:57:10.455Z,100863.38
2019-05-12T18:59:46.136Z,100871.10
2019-05-12T19:02:22.799Z,100876.60
2019-05-12T19:04:46.595Z,100876.58
2019-05-12T19:07:17.325Z,100872.28
2019-05-12T19:09:48.296Z,100873.82
2019-05-12T19:12:22.541Z,100884.85
2019-05-12T19:14:54.237Z,100887.31
2019-05-12T19:17:24.297Z,100891.56
2019-05-12T19:20:00.014Z,100892.93
2019-05-12T19:22:27.763Z,100893.42
2019-05-12T19:25:00.081Z,100899.47
2019-05-12T19:27:31.075Z,100897.47
2019-05-12T19:30:04.167Z,100892.06
2019-05-12T19:32:36.775Z,100890.22
2019-05-12T19:35:09.585Z,100897.48
2019-05-12T19:37:42.408Z,100899.52
2019-05-12T19:40:16.587Z,100896.40
2019-05-12T19:42:45.285Z,100897.13
2019-05-12T19:45:21.264Z,100899.42
2019-05-12T19:47:49.635Z,100917.44
2019-05-12T19:50:22.139Z,100923.67
2019-05-12T19:52:53.570Z,100919.14
2019-05-12T19:55:24.616Z,100926.06
2019-05-12T19:57:55.415Z,100922.12
2019-05-12T20:00:26.326Z,100929.08
2019-05-12T20:02:57.075Z,100928.64
2019-05-12T20:05:28.916Z,100932.09
2019-05-12T20:07:59.708Z,100937.02
2019-05-12T20:10:38.045Z,100940.89
2019-05-12T20:13:03.912Z,100944.44
2019-05-12T20:15:36.702Z,100950.38
2019-05-12T20:18:07.325Z,100956.26
2019-05-12T20:20:44.007Z,100960.42
2019-05-12T20:23:14.136Z,100957.23
2019-05-12T20:25:46.275Z,100958.64
2019-05-12T20:28:17.116Z,100963.84
2019-05-12T20:30:52.327Z,100970.54
2019-05-12T20:33:20.955Z,100970.02
2019-05-12T20:35:51.865Z,100977.38
2019-05-12T20:38:25.404Z,100972.69
2019-05-12T20:40:55.256Z,100978.12
2019-05-12T20:43:32.270Z,100971.12
2019-05-12T20:45:58.476Z,100973.92
2019-05-12T20:48:31.236Z,100979.84
2019-05-12T20:51:03.518Z,100974.19
2019-05-12T20:53:36.669Z,100981.37
2019-05-12T20:56:06.875Z,100976.06
2019-05-12T20:58:43.591Z,100987.54
2019-05-12T21:01:10.135Z,100982.47
2019-05-12T21:03:49.060Z,100986.97
2019-05-12T21:06:14.886Z,100987.48
2019-05-12T21:08:53.124Z,100991.46
2019-05-12T21:11:18.956Z,100992.20
2019-05-12T21:13:49.795Z,100996.44
2019-05-12T21:16:30.881Z,101000.13
2019-05-12T21:19:05.857Z,100998.86
2019-05-12T21:21:33.282Z,100993.26
2019-05-12T21:23:59.479Z,101002.87
2019-05-12T21:26:34.651Z,101004.19
2019-05-12T21:29:04.751Z,101012.16
2019-05-12T21:31:35.155Z,101017.77
2019-05-12T21:34:06.821Z,101017.42
2019-05-12T21:36:37.855Z,101022.47
2019-05-12T21:39:10.482Z,101023.11
2019-05-12T21:41:50.406Z,101029.75
2019-05-12T21:44:14.119Z,101037.37
2019-05-12T21:46:57.258Z,101035.98
2019-05-12T21:49:17.495Z,101045.88
2019-05-12T21:51:50.382Z,101052.44
2019-05-12T21:54:20.975Z,101051.23
2019-05-12T21:56:54.149Z,101058.67
2019-05-12T21:59:28.864Z,101055.40
2019-05-12T22:01:56.867Z,101059.26
2019-05-12T22:04:33.070Z,101064.66
2019-05-12T22:06:59.923Z,101071.72
2019-05-12T22:09:34.955Z,101073.03
2019-05-12T22:12:03.911Z,101073.95
2019-05-12T22:14:40.614Z,101079.34
2019-05-12T22:17:08.797Z,101083.16
2019-05-12T22:19:39.636Z,101081.50
2019-05-12T22:22:10.455Z,101076.38
2019-05-12T22:24:41.156Z,101071.66
2019-05-12T22:27:16.148Z,101075.23
2019-05-12T22:29:44.616Z,101077.05
2019-05-12T22:32:19.153Z,101080.07
2019-05-12T22:34:47.735Z,101073.95
2019-05-12T22:37:18.525Z,101075.16
2019-05-12T22:39:49.246Z,101076.14
2019-05-12T22:42:21.591Z,101080.61
2019-05-12T22:45:00.872Z,101076.98
2019-05-12T22:47:24.756Z,101073.42
2019-05-12T22:49:57.170Z,101075.67
2019-05-12T22:52:28.078Z,101072.41
2019-05-12T22:54:58.990Z,101082.11
2019-05-12T22:57:38.328Z,101085.73
2019-05-12T23:00:03.997Z,101098.90
2019-05-12T23:02:36.195Z,101101.14
2019-05-12T23:05:10.323Z,101103.86
2019-05-12T23:07:39.475Z,101104.39
2019-05-12T23:10:11.233Z,101101.77
2019-05-12T23:12:44.125Z,101103.92
2019-05-12T23:15:15.278Z,101105.29
2019-05-12T23:17:49.317Z,101101.83
2019-05-12T23:20:18.815Z,101105.78
2019-05-12T23:22:49.597Z,101100.70
2019-05-12T23:25:21.676Z,101091.73
2019-05-12T23:27:54.282Z,101099.23
2019-05-12T23:30:26.029Z,101097.52
2019-05-12T23:32:56.735Z,101092.34
2019-05-12T23:35:28.360Z,101091.53
2019-05-12T23:37:59.986Z,101091.53
2019-05-12T23:40:30.878Z,101080.16
2019-05-12T23:43:04.060Z,101084.44
2019-05-12T23:45:35.155Z,101077.39
2019-05-12T23:48:05.957Z,101078.91
2019-05-12T23:50:36.785Z,101080.25
2019-05-12T23:53:07.495Z,101082.98
2019-05-12T23:55:38.175Z,101083.86
2019-05-12T23:58:09.125Z,101089.50
